Time;durP1;ratioP1;P1;durP2;ratioP2;P2;SDS_P1;SDS_P2;PMS_P1;PMS_P2;Temp;Humidity;BMP_temperature;BMP_pressure;BME280_temperature;BME280_humidity;BME280_pressure;Samples;Min_cycle;Max_cycle;Signal;HPM_P1;HPM_P2
2022/08/10 03:00:47;;;;;;;;;;;29.10;35.90;;;;;;5804479;23;45875;-63
2022/08/10 03:03:24;;;;;;;;;;;29.10;35.90;;;;;;4943827;28;45104;-63
2022/08/10 03:05:50;;;;;;;;;;;29.00;36.60;;;;;;4938996;28;45153;-62
2022/08/10 03:08:17;;;;;;;;;;;29.00;35.90;;;;;;4951622;28;44808;-62
2022/08/10 03:10:43;;;;;;;;;;;29.00;35.90;;;;;;4951062;28;45057;-62
2022/08/10 03:13:08;;;;;;;;;;;29.00;35.90;;;;;;4952975;28;45115;-63
2022/08/10 03:15:35;;;;;;;;;;;29.00;35.90;;;;;;4955921;28;45206;-63
2022/08/10 03:18:00;;;;;;;;;;;29.00;35.90;;;;;;4960341;28;45172;-62
2022/08/10 03:20:27;;;;;;;;;;;29.00;35.90;;;;;;4955819;28;45331;-63
2022/08/10 03:22:53;;;;;;;;;;;29.00;35.90;;;;;;4952905;28;44996;-63
2022/08/10 03:25:19;;;;;;;;;;;29.00;36.00;;;;;;4946113;28;45562;-63
2022/08/10 03:27:44;;;;;;;;;;;29.00;36.00;;;;;;4936800;28;45536;-63
2022/08/10 03:30:10;;;;;;;;;;;29.00;36.00;;;;;;4939787;28;45789;-63
2022/08/10 03:32:35;;;;;;;;;;;29.00;35.90;;;;;;4951061;28;45230;-63
2022/08/10 03:35:01;;;;;;;;;;;29.00;36.00;;;;;;4950592;28;45256;-62
2022/08/10 03:37:26;;;;;;;;;;;29.00;36.00;;;;;;4956258;28;44793;-63
2022/08/10 03:39:53;;;;;;;;;;;29.00;36.00;;;;;;4956181;28;46287;-63
2022/08/10 03:42:19;;;;;;;;;;;28.90;35.90;;;;;;4950133;28;45402;-63
2022/08/10 03:44:44;;;;;;;;;;;28.90;36.00;;;;;;4935566;28;44934;-63
2022/08/10 03:47:10;;;;;;;;;;;28.90;36.00;;;;;;4953987;28;44967;-63
2022/08/10 03:49:35;;;;;;;;;;;28.90;36.00;;;;;;4953054;28;46117;-63
2022/08/10 03:52:01;;;;;;;;;;;28.90;36.00;;;;;;4947292;28;44971;-63
2022/08/10 03:54:27;;;;;;;;;;;28.90;36.10;;;;;;4954399;28;45101;-63
2022/08/10 03:56:52;;;;;;;;;;;28.90;36.00;;;;;;4953984;28;45046;-63
2022/08/10 03:59:18;;;;;;;;;;;28.90;36.00;;;;;;4952731;28;46133;-62
2022/08/10 04:01:44;;;;;;;;;;;28.90;36.70;;;;;;4953657;28;44948;-62
2022/08/10 04:04:09;;;;;;;;;;;28.90;36.00;;;;;;4970409;28;44863;-63
2022/08/10 04:06:35;;;;;;;;;;;28.90;36.00;;;;;;4967820;28;45147;-63
2022/08/10 04:09:01;;;;;;;;;;;28.90;36.10;;;;;;4953426;28;46151;-63
2022/08/10 04:11:26;;;;;;;;;;;28.90;36.10;;;;;;4971090;28;45190;-62
2022/08/10 04:13:52;;;;;;;;;;;28.90;36.10;;;;;;4981532;28;44992;-62
2022/08/10 04:16:17;;;;;;;;;;;28.90;36.10;;;;;;4946022;28;45050;-62
2022/08/10 04:18:43;;;;;;;;;;;28.90;36.10;;;;;;4956992;28;46024;-63
2022/08/10 04:21:08;;;;;;;;;;;28.90;36.10;;;;;;4972720;28;46034;-63
2022/08/10 04:23:35;;;;;;;;;;;28.90;36.10;;;;;;4979113;28;45031;-63
2022/08/10 04:26:00;;;;;;;;;;;28.90;36.10;;;;;;4967567;28;44864;-63
2022/08/10 04:28:26;;;;;;;;;;;28.90;36.10;;;;;;4941074;28;46128;-62
2022/08/10 04:30:52;;;;;;;;;;;28.90;36.10;;;;;;4942949;28;44732;-63
2022/08/10 04:33:19;;;;;;;;;;;28.90;36.20;;;;;;4953673;28;44873;-62
2022/08/10 04:35:45;;;;;;;;;;;28.80;36.10;;;;;;4961210;28;45211;-62
2022/08/10 04:38:11;;;;;;;;;;;28.80;36.10;;;;;;4954374;28;44910;-63
2022/08/10 04:40:37;;;;;;;;;;;28.80;36.10;;;;;;4951806;28;44590;-62
2022/08/10 04:43:03;;;;;;;;;;;28.80;36.10;;;;;;4978015;28;45156;-63
2022/08/10 04:45:29;;;;;;;;;;;28.80;36.10;;;;;;4955600;28;45121;-63
2022/08/10 04:47:54;;;;;;;;;;;28.80;36.10;;;;;;4967553;28;45983;-62
2022/08/10 04:50:20;;;;;;;;;;;28.80;36.20;;;;;;4969854;28;45077;-63
2022/08/10 04:52:45;;;;;;;;;;;28.80;36.20;;;;;;4972063;28;45004;-62
2022/08/10 04:55:11;;;;;;;;;;;28.80;36.10;;;;;;4968930;28;45117;-64
2022/08/10 04:57:36;;;;;;;;;;;28.80;36.10;;;;;;4978383;28;45218;-63
2022/08/10 05:00:02;;;;;;;;;;;28.80;36.10;;;;;;4976495;28;45183;-63
2022/08/10 05:02:28;;;;;;;;;;;28.80;36.10;;;;;;4967455;28;44876;-63
2022/08/10 05:04:54;;;;;;;;;;;28.80;36.10;;;;;;4958968;28;45150;-63
2022/08/10 05:07:19;;;;;;;;;;;28.80;36.10;;;;;;4968345;28;46259;-63
2022/08/10 05:09:45;;;;;;;;;;;28.80;36.10;;;;;;4971500;28;45220;-63
2022/08/10 05:12:11;;;;;;;;;;;28.80;36.10;;;;;;4975411;28;45598;-63
2022/08/10 05:14:36;;;;;;;;;;;28.80;36.20;;;;;;4975631;28;45359;-63
2022/08/10 05:17:02;;;;;;;;;;;28.80;36.20;;;;;;4951745;28;45175;-63
2022/08/10 05:19:27;;;;;;;;;;;28.80;36.20;;;;;;4971281;28;44993;-63
2022/08/10 05:21:53;;;;;;;;;;;28.80;36.20;;;;;;4969541;28;44867;-63
2022/08/10 05:24:18;;;;;;;;;;;28.80;36.20;;;;;;4964203;28;44949;-63
2022/08/10 05:26:44;;;;;;;;;;;28.90;36.10;;;;;;4969657;28;44956;-63
2022/08/10 05:29:09;;;;;;;;;;;29.80;34.80;;;;;;4970519;28;44901;-63
2022/08/10 05:31:35;;;;;;;;;;;30.50;33.50;;;;;;4967724;28;45040;-63
2022/08/10 05:34:00;;;;;;;;;;;31.00;32.80;;;;;;4969917;28;44885;-63
2022/08/10 05:36:26;;;;;;;;;;;31.30;32.30;;;;;;4968948;28;46490;-64
2022/08/10 05:38:51;;;;;;;;;;;31.50;31.90;;;;;;4958802;28;45014;-63
2022/08/10 05:41:17;;;;;;;;;;;31.50;32.00;;;;;;4961175;28;45123;-63
2022/08/10 05:43:42;;;;;;;;;;;30.80;32.70;;;;;;4956370;28;45807;-63
2022/08/10 05:46:08;;;;;;;;;;;30.10;33.80;;;;;;4966251;28;45176;-63
2022/08/10 05:48:34;;;;;;;;;;;29.70;34.40;;;;;;4970415;28;44707;-63
2022/08/10 05:50:59;;;;;;;;;;;29.50;34.80;;;;;;4965832;28;44992;-63
2022/08/10 05:53:25;;;;;;;;;;;29.30;35.10;;;;;;4964876;28;45354;-63
2022/08/10 05:55:50;;;;;;;;;;;29.30;35.40;;;;;;4944566;28;46140;-63
2022/08/10 05:58:16;;;;;;;;;;;29.20;35.50;;;;;;4954084;28;44686;-62
2022/08/10 06:00:42;;;;;;;;;;;29.10;35.60;;;;;;4962581;28;44714;-63
2022/08/10 06:03:07;;;;;;;;;;;29.10;35.70;;;;;;4948819;28;45146;-63
2022/08/10 06:05:33;;;;;;;;;;;29.00;35.70;;;;;;4960849;28;45169;-63
2022/08/10 06:08:08;;;;;;;;;;;29.00;35.80;;;;;;4947940;28;44866;-63
2022/08/10 06:10:34;;;;;;;;;;;29.00;35.80;;;;;;4963190;28;44915;-63
2022/08/10 06:15:44;;;;;;;;;;;29.10;35.80;;;;;;4959447;28;45308;-63
2022/08/10 06:18:10;;;;;;;;;;;29.10;35.80;;;;;;4970192;28;45074;-63
2022/08/10 06:20:36;;;;;;;;;;;29.10;35.70;;;;;;4971540;28;45149;-63
2022/08/10 06:23:02;;;;;;;;;;;29.20;35.70;;;;;;4963022;28;45104;-62
2022/08/10 06:25:30;;;;;;;;;;;29.20;35.60;;;;;;4938858;28;45708;-64
2022/08/10 06:27:56;;;;;;;;;;;29.30;35.50;;;;;;4975488;28;44930;-63
2022/08/10 06:30:21;;;;;;;;;;;29.30;35.40;;;;;;4955985;28;45265;-63
2022/08/10 06:32:48;;;;;;;;;;;29.40;35.20;;;;;;4940364;28;44868;-63
2022/08/10 06:35:13;;;;;;;;;;;29.50;35.10;;;;;;4958533;28;45907;-63
2022/08/10 06:37:39;;;;;;;;;;;29.60;35.10;;;;;;4961919;28;44936;-63
2022/08/10 06:40:05;;;;;;;;;;;29.60;35.00;;;;;;4971701;28;44936;-63
2022/08/10 06:42:31;;;;;;;;;;;29.60;35.00;;;;;;4956838;28;44752;-62
2022/08/10 06:45:14;;;;;;;;;;;29.60;35.10;;;;;;4936304;28;46928;-63
2022/08/10 06:47:58;;;;;;;;;;;29.50;35.10;;;;;;4953468;28;45216;-63
2022/08/10 06:50:34;;;;;;;;;;;29.50;35.20;;;;;;4966529;28;44973;-63
2022/08/10 06:53:00;;;;;;;;;;;29.50;35.20;;;;;;4959586;28;44706;-63
2022/08/10 06:55:26;;;;;;;;;;;29.50;35.20;;;;;;4969303;28;46762;-62
2022/08/10 06:57:51;;;;;;;;;;;29.50;35.80;;;;;;4949940;28;45042;-62
2022/08/10 07:00:17;;;;;;;;;;;29.50;35.20;;;;;;4939257;28;45010;-62
2022/08/10 07:02:54;;;;;;;;;;;29.60;35.10;;;;;;4973747;28;45278;-62
2022/08/10 07:05:20;;;;;;;;;;;29.60;35.10;;;;;;4936333;28;47191;-63
2022/08/10 07:07:47;;;;;;;;;;;29.60;35.10;;;;;;4936994;28;45295;-62
2022/08/10 07:10:15;;;;;;;;;;;29.70;35.00;;;;;;4952852;28;45051;-61
2022/08/10 07:12:40;;;;;;;;;;;29.70;35.00;;;;;;4958423;28;44968;-62
2022/08/10 07:15:06;;;;;;;;;;;29.70;35.00;;;;;;4951432;28;45066;-63
2022/08/10 07:17:32;;;;;;;;;;;29.70;35.00;;;;;;4945701;28;45041;-63
2022/08/10 07:19:58;;;;;;;;;;;29.70;35.00;;;;;;4965233;28;45136;-62
2022/08/10 07:22:24;;;;;;;;;;;29.70;35.00;;;;;;4961385;28;45227;-63
2022/08/10 07:24:50;;;;;;;;;;;29.70;35.10;;;;;;4970122;28;46192;-64
2022/08/10 07:27:15;;;;;;;;;;;29.70;35.10;;;;;;4971729;28;44942;-63
2022/08/10 07:29:42;;;;;;;;;;;29.70;35.10;;;;;;4970596;28;45164;-62
2022/08/10 07:32:07;;;;;;;;;;;29.70;35.10;;;;;;4957317;28;45049;-62
2022/08/10 07:34:33;;;;;;;;;;;29.70;35.20;;;;;;4966026;28;45424;-63
2022/08/10 07:37:03;;;;;;;;;;;29.70;35.20;;;;;;4950151;28;45046;-63
2022/08/10 07:39:33;;;;;;;;;;;29.70;35.10;;;;;;4958387;28;44991;-63
2022/08/10 07:41:58;;;;;;;;;;;29.70;35.70;;;;;;4972766;28;45176;-63
2022/08/10 07:44:25;;;;;;;;;;;29.70;35.00;;;;;;4972523;28;46151;-63
2022/08/10 07:46:51;;;;;;;;;;;29.80;35.10;;;;;;4950232;28;44875;-63
2022/08/10 07:49:21;;;;;;;;;;;29.80;35.00;;;;;;4960397;28;45061;-63
2022/08/10 07:51:50;;;;;;;;;;;29.80;35.00;;;;;;4958043;28;45221;-64
2022/08/10 07:54:15;;;;;;;;;;;29.80;35.00;;;;;;4958959;28;45957;-62
2022/08/10 07:56:42;;;;;;;;;;;29.80;35.00;;;;;;4952303;28;45418;-63
2022/08/10 07:59:13;;;;;;;;;;;29.80;35.00;;;;;;4955115;28;44956;-63
2022/08/10 08:01:43;;;;;;;;;;;29.80;34.90;;;;;;4936491;28;45527;-63
2022/08/10 08:04:08;;;;;;;;;;;29.80;34.80;;;;;;4953428;28;45204;-62
2022/08/10 08:06:34;;;;;;;;;;;29.90;34.80;;;;;;4943586;28;45136;-62
2022/08/10 08:09:00;;;;;;;;;;;29.90;34.70;;;;;;4948567;28;45214;-63
2022/08/10 08:11:26;;;;;;;;;;;29.90;34.70;;;;;;4948271;28;45338;-63
2022/08/10 08:13:51;;;;;;;;;;;30.00;34.60;;;;;;4965602;28;44987;-63
2022/08/10 08:16:17;;;;;;;;;;;30.00;34.50;;;;;;4967367;28;45227;-62
2022/08/10 08:18:43;;;;;;;;;;;30.00;34.50;;;;;;4927488;28;44831;-63
2022/08/10 08:21:09;;;;;;;;;;;30.00;34.40;;;;;;4954219;28;45114;-63
2022/08/10 08:23:36;;;;;;;;;;;30.00;34.30;;;;;;4960119;28;45027;-62
2022/08/10 08:26:01;;;;;;;;;;;30.00;34.30;;;;;;4957425;28;44911;-62
2022/08/10 08:28:27;;;;;;;;;;;30.00;34.30;;;;;;4954440;28;44652;-63
2022/08/10 08:30:52;;;;;;;;;;;30.00;34.80;;;;;;4957095;28;44814;-63
2022/08/10 08:33:18;;;;;;;;;;;30.10;34.20;;;;;;4972310;28;45299;-63
2022/08/10 08:35:44;;;;;;;;;;;30.10;34.20;;;;;;4955313;28;44658;-63
2022/08/10 08:38:10;;;;;;;;;;;30.10;34.20;;;;;;4954457;28;45477;-62
2022/08/10 08:40:36;;;;;;;;;;;30.10;34.20;;;;;;4953293;28;45208;-63
2022/08/10 08:43:17;;;;;;;;;;;30.10;34.10;;;;;;4965953;28;45087;-62
2022/08/10 08:45:43;;;;;;;;;;;30.20;34.10;;;;;;4954966;28;45028;-62
2022/08/10 08:48:27;;;;;;;;;;;30.20;34.10;;;;;;4973379;28;45157;-63
2022/08/10 08:51:02;;;;;;;;;;;30.20;34.10;;;;;;4969454;28;44945;-62
2022/08/10 08:53:31;;;;;;;;;;;30.20;34.00;;;;;;4953579;28;46782;-62
2022/08/10 08:56:01;;;;;;;;;;;30.20;34.00;;;;;;4971194;28;44840;-62
2022/08/10 08:58:46;;;;;;;;;;;30.20;33.80;;;;;;4978555;28;44949;-62
2022/08/10 09:01:18;;;;;;;;;;;30.20;33.80;;;;;;4976688;28;44888;-62
2022/08/10 09:03:54;;;;;;;;;;;30.20;33.80;;;;;;4960191;28;45006;-62
2022/08/10 09:06:40;;;;;;;;;;;30.30;33.80;;;;;;4950860;28;44947;-63
2022/08/10 09:09:28;;;;;;;;;;;30.30;33.80;;;;;;4951993;28;45674;-62
2022/08/10 09:12:09;;;;;;;;;;;30.30;33.70;;;;;;4939112;28;44824;-62
2022/08/10 09:14:48;;;;;;;;;;;30.20;33.70;;;;;;4970184;28;45585;-62
2022/08/10 09:17:23;;;;;;;;;;;30.30;33.60;;;;;;4939993;28;44945;-63
2022/08/10 09:19:50;;;;;;;;;;;30.30;33.60;;;;;;4953175;28;45097;-63
2022/08/10 09:22:20;;;;;;;;;;;30.30;33.50;;;;;;4967382;28;45386;-62
2022/08/10 09:24:49;;;;;;;;;;;30.30;33.60;;;;;;4959150;28;46174;-64
2022/08/10 09:27:18;;;;;;;;;;;30.40;33.50;;;;;;4972631;28;45055;-63
2022/08/10 09:29:48;;;;;;;;;;;30.30;33.50;;;;;;4970074;28;45276;-63
2022/08/10 09:32:17;;;;;;;;;;;30.40;33.50;;;;;;4951313;28;44938;-63
2022/08/10 09:35:01;;;;;;;;;;;30.40;33.40;;;;;;4953476;28;45101;-63
2022/08/10 09:37:30;;;;;;;;;;;30.40;33.50;;;;;;4968339;28;45015;-63
2022/08/10 09:39:56;;;;;;;;;;;30.40;33.30;;;;;;4971670;28;45263;-63
2022/08/10 09:42:28;;;;;;;;;;;30.40;33.30;;;;;;4974422;28;44767;-64
2022/08/10 09:44:59;;;;;;;;;;;30.40;33.30;;;;;;4965890;28;45619;-63
2022/08/10 09:47:34;;;;;;;;;;;30.40;33.30;;;;;;4972745;28;44721;-63
2022/08/10 09:50:18;;;;;;;;;;;30.50;33.20;;;;;;4970746;28;45376;-62
2022/08/10 09:52:53;;;;;;;;;;;30.40;33.20;;;;;;4959776;28;44869;-63
2022/08/10 09:55:21;;;;;;;;;;;30.40;33.20;;;;;;4961172;28;45546;-62
2022/08/10 09:57:56;;;;;;;;;;;30.40;33.10;;;;;;4975685;28;44677;-63
2022/08/10 10:00:22;;;;;;;;;;;30.50;33.10;;;;;;4957178;28;45037;-62
2022/08/10 10:03:02;;;;;;;;;;;30.50;33.00;;;;;;4959617;28;45008;-62
2022/08/10 10:05:57;;;;;;;;;;;30.50;33.00;;;;;;4955020;28;46168;-62
2022/08/10 10:08:25;;;;;;;;;;;30.50;32.90;;;;;;4965521;28;44894;-63
2022/08/10 10:10:53;;;;;;;;;;;30.50;33.00;;;;;;4953765;28;45051;-62
2022/08/10 10:13:23;;;;;;;;;;;30.50;33.00;;;;;;4975664;28;44829;-62
2022/08/10 10:15:58;;;;;;;;;;;30.60;33.00;;;;;;4954821;28;45335;-62
2022/08/10 10:18:59;;;;;;;;;;;30.60;32.90;;;;;;4940586;28;45211;-62
2022/08/10 10:21:32;;;;;;;;;;;30.60;32.90;;;;;;4891661;28;45270;-62
2022/08/10 10:24:05;;;;;;;;;;;30.60;32.90;;;;;;4960862;28;45572;-62
2022/08/10 10:26:36;;;;;;;;;;;30.60;32.80;;;;;;4939147;28;46404;-62
2022/08/10 10:29:17;;;;;;;;;;;30.60;32.80;;;;;;4976557;28;44991;-63
2022/08/10 10:32:03;;;;;;;;;;;30.60;32.90;;;;;;4941387;28;45166;-62
2022/08/10 10:34:31;;;;;;;;;;;30.60;32.90;;;;;;4954137;28;44904;-63
2022/08/10 10:36:57;;;;;;;;;;;30.60;32.90;;;;;;4970266;28;46197;-63
2022/08/10 10:39:23;;;;;;;;;;;30.60;32.90;;;;;;4955886;28;44910;-62
2022/08/10 10:41:51;;;;;;;;;;;30.60;32.90;;;;;;4958039;28;44777;-62
2022/08/10 10:44:26;;;;;;;;;;;30.60;32.90;;;;;;4969320;28;44806;-62
2022/08/10 10:47:03;;;;;;;;;;;30.60;32.90;;;;;;4975550;28;45105;-62
2022/08/10 10:49:37;;;;;;;;;;;30.60;32.90;;;;;;4957883;28;45008;-63
2022/08/10 10:52:03;;;;;;;;;;;30.60;32.90;;;;;;4971472;28;46358;-61
2022/08/10 10:54:39;;;;;;;;;;;30.60;32.90;;;;;;4974248;28;44761;-63
2022/08/10 10:57:11;;;;;;;;;;;30.60;32.80;;;;;;4958212;28;46552;-63
2022/08/10 10:59:36;;;;;;;;;;;30.60;32.80;;;;;;4971593;28;45012;-63
2022/08/10 11:02:08;;;;;;;;;;;30.60;32.70;;;;;;4970376;28;44848;-63
2022/08/10 11:04:33;;;;;;;;;;;30.60;32.70;;;;;;4959460;28;45336;-63
2022/08/10 11:07:03;;;;;;;;;;;30.60;32.70;;;;;;4973057;28;46148;-63
2022/08/10 11:09:34;;;;;;;;;;;30.60;32.70;;;;;;4970074;28;45166;-63
2022/08/10 11:12:01;;;;;;;;;;;30.60;32.60;;;;;;4936989;28;45211;-63
2022/08/10 11:14:38;;;;;;;;;;;30.60;32.60;;;;;;4956989;28;45015;-63
2022/08/10 11:17:12;;;;;;;;;;;30.70;32.60;;;;;;4970243;28;46164;-64
2022/08/10 11:19:56;;;;;;;;;;;30.60;32.50;;;;;;4967987;28;45584;-63
2022/08/10 11:22:29;;;;;;;;;;;30.60;32.60;;;;;;4966738;28;45431;-63
2022/08/10 11:24:54;;;;;;;;;;;30.60;32.60;;;;;;4958644;28;45013;-62
2022/08/10 11:27:26;;;;;;;;;;;30.60;32.50;;;;;;4974571;28;45873;-63
2022/08/10 11:30:05;;;;;;;;;;;30.60;32.70;;;;;;4969840;28;44958;-63
2022/08/10 11:32:33;;;;;;;;;;;30.60;32.70;;;;;;4951922;28;45038;-63
2022/08/10 11:34:59;;;;;;;;;;;30.60;32.70;;;;;;4971845;28;44878;-63
2022/08/10 11:37:28;;;;;;;;;;;30.60;32.80;;;;;;4972806;28;45119;-63
2022/08/10 11:40:08;;;;;;;;;;;30.60;32.90;;;;;;4955117;28;45013;-63
2022/08/10 11:42:43;;;;;;;;;;;30.60;32.80;;;;;;4975664;28;45224;-63
2022/08/10 11:45:14;;;;;;;;;;;30.60;33.10;;;;;;4969390;28;44890;-63
2022/08/10 11:47:47;;;;;;;;;;;30.60;33.10;;;;;;4966187;28;45171;-63
2022/08/10 11:50:31;;;;;;;;;;;30.60;33.00;;;;;;4958124;28;45217;-62
2022/08/10 11:52:57;;;;;;;;;;;30.60;32.90;;;;;;4967990;28;44957;-63
2022/08/10 11:55:23;;;;;;;;;;;30.60;32.90;;;;;;4978244;28;45041;-62
2022/08/10 11:57:50;;;;;;;;;;;30.60;32.90;;;;;;4964415;28;45075;-64
2022/08/10 12:00:16;;;;;;;;;;;30.60;32.70;;;;;;4948435;28;44805;-63
2022/08/10 12:02:45;;;;;;;;;;;30.60;32.70;;;;;;4970793;28;44856;-63
2022/08/10 12:05:15;;;;;;;;;;;30.60;32.70;;;;;;4955212;28;45988;-63
2022/08/10 12:07:41;;;;;;;;;;;30.60;32.70;;;;;;4958709;28;46175;-62
2022/08/10 12:10:07;;;;;;;;;;;30.60;32.70;;;;;;4960856;28;45807;-63
2022/08/10 12:12:33;;;;;;;;;;;30.60;32.70;;;;;;4960404;28;45355;-63
2022/08/10 12:15:00;;;;;;;;;;;30.60;32.90;;;;;;4980251;28;44967;-62
2022/08/10 12:17:29;;;;;;;;;;;30.60;32.80;;;;;;4964088;28;45800;-63
2022/08/10 12:20:02;;;;;;;;;;;30.60;32.80;;;;;;4971664;28;44994;-63
2022/08/10 12:22:30;;;;;;;;;;;30.60;32.70;;;;;;4957645;28;45228;-62
2022/08/10 12:24:56;;;;;;;;;;;30.60;32.70;;;;;;4952014;28;44953;-63
2022/08/10 12:27:24;;;;;;;;;;;30.70;32.80;;;;;;4973918;28;45319;-61
2022/08/10 12:29:53;;;;;;;;;;;30.60;32.80;;;;;;4974463;28;45093;-63
2022/08/10 12:32:44;;;;;;;;;;;30.60;32.70;;;;;;4973940;28;45076;-63
2022/08/10 12:35:29;;;;;;;;;;;30.60;32.80;;;;;;4960993;28;44987;-63
2022/08/10 12:37:54;;;;;;;;;;;30.70;32.80;;;;;;4965824;28;46039;-62
2022/08/10 12:40:26;;;;;;;;;;;30.60;32.80;;;;;;4973118;28;45225;-63
2022/08/10 12:42:56;;;;;;;;;;;30.60;32.80;;;;;;4960378;28;44838;-63
2022/08/10 12:45:31;;;;;;;;;;;30.70;32.80;;;;;;4974961;28;45020;-62
2022/08/10 12:47:57;;;;;;;;;;;30.70;32.70;;;;;;4956545;28;45074;-62
2022/08/10 12:50:28;;;;;;;;;;;30.70;32.60;;;;;;4971664;28;44980;-63
2022/08/10 12:52:55;;;;;;;;;;;30.70;32.50;;;;;;4954352;28;45095;-64
2022/08/10 12:55:20;;;;;;;;;;;30.70;32.40;;;;;;4970180;28;45230;-64
2022/08/10 12:57:48;;;;;;;;;;;30.70;32.40;;;;;;4935082;28;46991;-64
2022/08/10 13:00:14;;;;;;;;;;;30.70;32.40;;;;;;4969710;28;44856;-63
2022/08/10 13:02:41;;;;;;;;;;;30.70;32.30;;;;;;4953742;28;44934;-63
2022/08/10 13:05:07;;;;;;;;;;;30.70;32.30;;;;;;4954162;28;45277;-63
2022/08/10 13:07:37;;;;;;;;;;;30.70;32.30;;;;;;4957365;28;45432;-63
2022/08/10 13:10:09;;;;;;;;;;;30.70;32.30;;;;;;4969320;28;46152;-63
2022/08/10 13:12:39;;;;;;;;;;;30.80;32.20;;;;;;4951635;28;44997;-63
2022/08/10 13:15:18;;;;;;;;;;;30.70;32.10;;;;;;4967543;28;45027;-63
2022/08/10 13:17:46;;;;;;;;;;;30.70;32.10;;;;;;4970366;28;46446;-62
2022/08/10 13:20:17;;;;;;;;;;;30.70;32.20;;;;;;4970604;28;44825;-63
2022/08/10 13:22:42;;;;;;;;;;;30.70;32.30;;;;;;4953551;28;45014;-62
2022/08/10 13:25:08;;;;;;;;;;;30.70;32.20;;;;;;4963861;28;44910;-63
2022/08/10 13:27:34;;;;;;;;;;;30.70;32.20;;;;;;4952161;28;46129;-62
2022/08/10 13:30:00;;;;;;;;;;;30.70;32.20;;;;;;4970829;28;44854;-63
2022/08/10 13:32:26;;;;;;;;;;;30.70;32.20;;;;;;4942331;28;45495;-63
2022/08/10 13:34:51;;;;;;;;;;;30.80;32.30;;;;;;4954551;28;45467;-63
2022/08/10 13:37:22;;;;;;;;;;;30.70;32.20;;;;;;4953039;28;46469;-64
2022/08/10 13:39:49;;;;;;;;;;;30.70;32.00;;;;;;4955088;28;44941;-63
2022/08/10 13:42:15;;;;;;;;;;;30.80;32.10;;;;;;4953966;28;45081;-63
2022/08/10 13:44:41;;;;;;;;;;;30.80;32.10;;;;;;4953320;28;45426;-63
2022/08/10 13:47:10;;;;;;;;;;;30.70;32.00;;;;;;4968491;28;45899;-63
2022/08/10 13:49:49;;;;;;;;;;;30.70;31.90;;;;;;4953234;28;45270;-63
2022/08/10 13:52:17;;;;;;;;;;;30.70;32.00;;;;;;4954452;28;44972;-63
2022/08/10 13:54:42;;;;;;;;;;;30.80;31.80;;;;;;4961516;28;44760;-63
2022/08/10 13:57:08;;;;;;;;;;;30.80;31.90;;;;;;4960823;28;45984;-63
2022/08/10 13:59:34;;;;;;;;;;;30.80;31.70;;;;;;4958585;28;44670;-64
2022/08/10 14:01:59;;;;;;;;;;;30.80;31.70;;;;;;4943596;28;45273;-63
2022/08/10 14:04:25;;;;;;;;;;;30.70;31.60;;;;;;4962911;28;44686;-63
2022/08/10 14:06:54;;;;;;;;;;;30.80;31.60;;;;;;4944168;28;46149;-63
2022/08/10 14:09:23;;;;;;;;;;;30.80;31.50;;;;;;4950907;28;45552;-63
2022/08/10 14:11:48;;;;;;;;;;;30.80;31.50;;;;;;4948847;28;45176;-63
2022/08/10 14:14:15;;;;;;;;;;;30.80;31.50;;;;;;4960120;28;45194;-64
2022/08/10 14:16:41;;;;;;;;;;;30.80;31.50;;;;;;4943508;28;46210;-62
2022/08/10 14:19:09;;;;;;;;;;;30.80;31.40;;;;;;4951320;28;45081;-63
2022/08/10 14:21:38;;;;;;;;;;;30.80;31.40;;;;;;4958047;28;45347;-64
2022/08/10 14:24:03;;;;;;;;;;;30.80;31.50;;;;;;4977424;28;44860;-63
2022/08/10 14:26:29;;;;;;;;;;;30.70;31.40;;;;;;4969433;28;45822;-63
2022/08/10 14:28:56;;;;;;;;;;;30.80;31.50;;;;;;4959262;28;45388;-63
2022/08/10 14:31:23;;;;;;;;;;;30.70;31.30;;;;;;4956353;28;44896;-63
2022/08/10 14:33:52;;;;;;;;;;;30.80;31.40;;;;;;4959434;28;45058;-63
2022/08/10 14:36:19;;;;;;;;;;;30.70;31.40;;;;;;4960990;28;45940;-63
2022/08/10 14:38:44;;;;;;;;;;;30.80;31.40;;;;;;4968386;28;45010;-63
2022/08/10 14:41:14;;;;;;;;;;;30.80;31.40;;;;;;4954964;28;44908;-63
2022/08/10 14:43:40;;;;;;;;;;;30.80;31.40;;;;;;4960266;28;44898;-62
2022/08/10 14:46:06;;;;;;;;;;;30.70;31.40;;;;;;4973620;28;45944;-63
2022/08/10 14:48:33;;;;;;;;;;;30.70;31.50;;;;;;4958564;28;45123;-63
2022/08/10 14:50:59;;;;;;;;;;;30.80;31.50;;;;;;4973328;28;44884;-63
2022/08/10 14:53:25;;;;;;;;;;;30.80;31.40;;;;;;4964565;28;45233;-63
2022/08/10 14:55:52;;;;;;;;;;;30.80;31.30;;;;;;4941187;28;46040;-63
2022/08/10 14:58:18;;;;;;;;;;;30.80;31.30;;;;;;4952604;28;45179;-63
2022/08/10 15:00:44;;;;;;;;;;;30.70;31.20;;;;;;4968570;28;44971;-63
2022/08/10 15:03:12;;;;;;;;;;;30.70;31.20;;;;;;4971996;28;45189;-62
2022/08/10 15:05:37;;;;;;;;;;;30.80;31.20;;;;;;4955574;28;46080;-64
2022/08/10 15:08:03;;;;;;;;;;;30.80;31.10;;;;;;4970943;28;44940;-64
2022/08/10 15:10:28;;;;;;;;;;;30.80;31.10;;;;;;4972999;28;45177;-64
2022/08/10 15:12:54;;;;;;;;;;;30.70;31.10;;;;;;4973365;28;45570;-64
2022/08/10 15:15:19;;;;;;;;;;;30.70;31.10;;;;;;4973666;28;45639;-64
2022/08/10 15:17:47;;;;;;;;;;;30.70;31.10;;;;;;4955572;28;45265;-64
2022/08/10 15:20:19;;;;;;;;;;;30.70;31.00;;;;;;4955272;28;45211;-64
2022/08/10 15:22:49;;;;;;;;;;;30.70;31.10;;;;;;4949994;28;44771;-64
2022/08/10 15:25:15;;;;;;;;;;;30.70;31.00;;;;;;4968941;28;46195;-66
2022/08/10 15:27:41;;;;;;;;;;;30.80;31.10;;;;;;4971178;28;44839;-63
2022/08/10 15:30:08;;;;;;;;;;;30.70;30.90;;;;;;4972137;28;44817;-61
2022/08/10 15:38:33;;;;;;;;;;;30.70;31.00;;;;;;4959510;28;44981;-63
2022/08/10 15:40:58;;;;;;;;;;;30.70;30.90;;;;;;4972284;28;44877;-63
2022/08/10 15:43:24;;;;;;;;;;;30.70;30.90;;;;;;4963444;28;45259;-63
2022/08/10 15:46:09;;;;;;;;;;;30.70;30.90;;;;;;4971864;28;45735;-63
2022/08/10 15:48:44;;;;;;;;;;;30.70;30.90;;;;;;4967736;28;44809;-64
2022/08/10 15:51:23;;;;;;;;;;;30.70;30.70;;;;;;4937263;28;44769;-64
2022/08/10 15:53:51;;;;;;;;;;;30.70;30.90;;;;;;4981267;28;44953;-63
2022/08/10 15:56:18;;;;;;;;;;;30.70;30.90;;;;;;4963130;28;46118;-64
2022/08/10 15:58:43;;;;;;;;;;;30.70;30.90;;;;;;4957595;28;44739;-64
2022/08/10 16:01:10;;;;;;;;;;;30.70;30.90;;;;;;4973548;28;45139;-64
2022/08/10 16:03:46;;;;;;;;;;;30.70;30.80;;;;;;4958352;28;45409;-64
2022/08/10 16:06:22;;;;;;;;;;;30.70;30.80;;;;;;4959014;28;45510;-64
2022/08/10 16:08:48;;;;;;;;;;;30.70;31.00;;;;;;4968836;28;44861;-64
2022/08/10 16:11:15;;;;;;;;;;;30.70;30.30;;;;;;4946015;28;44695;-63
2022/08/10 16:13:41;;;;;;;;;;;30.70;31.00;;;;;;4964539;28;44879;-64
2022/08/10 16:16:07;;;;;;;;;;;30.70;31.00;;;;;;4961962;28;45299;-64
2022/08/10 16:18:36;;;;;;;;;;;30.70;31.00;;;;;;4953890;28;45059;-64
2022/08/10 16:21:02;;;;;;;;;;;30.70;31.00;;;;;;4949811;28;45034;-64
2022/08/10 16:23:33;;;;;;;;;;;30.70;31.00;;;;;;4964970;28;44721;-65
2022/08/10 16:26:00;;;;;;;;;;;30.70;31.00;;;;;;4961344;28;45072;-63
2022/08/10 16:28:33;;;;;;;;;;;30.70;30.80;;;;;;4967584;28;44683;-64
2022/08/10 16:30:58;;;;;;;;;;;30.70;30.90;;;;;;4969122;28;45216;-64
2022/08/10 16:33:25;;;;;;;;;;;30.70;30.90;;;;;;4969619;28;45353;-63
2022/08/10 16:35:52;;;;;;;;;;;30.70;31.00;;;;;;4959887;28;46071;-63
2022/08/10 16:38:18;;;;;;;;;;;30.70;31.00;;;;;;4958129;28;45025;-63
2022/08/10 16:40:44;;;;;;;;;;;30.70;30.90;;;;;;4937817;28;44822;-63
2022/08/10 16:43:10;;;;;;;;;;;30.70;30.90;;;;;;4951160;28;45476;-63
2022/08/10 16:45:37;;;;;;;;;;;30.70;30.90;;;;;;4964759;28;46029;-63
2022/08/10 16:48:03;;;;;;;;;;;30.70;30.90;;;;;;4954002;28;45253;-63
2022/08/10 16:50:31;;;;;;;;;;;30.80;31.10;;;;;;4974540;28;44944;-63
2022/08/10 16:52:59;;;;;;;;;;;30.70;31.10;;;;;;4943396;28;44974;-63
2022/08/10 16:55:24;;;;;;;;;;;30.70;31.10;;;;;;4953735;28;46195;-63
2022/08/10 16:57:51;;;;;;;;;;;30.70;31.20;;;;;;4967127;28;45001;-62
2022/08/10 17:00:17;;;;;;;;;;;30.70;31.10;;;;;;4956454;28;45171;-63
2022/08/10 17:02:45;;;;;;;;;;;30.70;31.10;;;;;;4957020;28;45144;-63
2022/08/10 17:05:10;;;;;;;;;;;30.70;31.10;;;;;;4945807;28;46114;-63
2022/08/10 17:07:36;;;;;;;;;;;30.70;31.00;;;;;;4953701;28;44947;-63
2022/08/10 17:10:06;;;;;;;;;;;30.70;30.90;;;;;;4963049;28;45135;-63
2022/08/10 17:12:32;;;;;;;;;;;30.70;30.70;;;;;;4971693;28;44763;-63
2022/08/10 17:14:57;;;;;;;;;;;30.70;30.70;;;;;;4969972;28;46240;-63
2022/08/10 17:17:26;;;;;;;;;;;30.70;30.60;;;;;;4964852;28;44734;-63
2022/08/10 17:19:55;;;;;;;;;;;30.70;30.60;;;;;;4955138;28;45085;-63
2022/08/10 17:22:21;;;;;;;;;;;30.70;30.50;;;;;;4934071;28;44994;-64
2022/08/10 17:24:48;;;;;;;;;;;30.70;30.30;;;;;;4959440;28;46310;-63
2022/08/10 17:27:14;;;;;;;;;;;30.70;30.10;;;;;;4936506;28;44942;-64
2022/08/10 17:29:39;;;;;;;;;;;30.70;30.10;;;;;;4940101;28;44896;-65
2022/08/10 17:32:06;;;;;;;;;;;30.70;30.30;;;;;;4967219;28;45463;-63